Time;durP1;ratioP1;P1;durP2;ratioP2;P2;SDS_P1;SDS_P2;PMS_P1;PMS_P2;Temp;Humidity;BMP_temperature;BMP_pressure;BME280_temperature;BME280_humidity;BME280_pressure;Samples;Min_cycle;Max_cycle;Signal;HPM_P1;HPM_P2
2023/01/24 05:07:35;;;;;;;6.47;5.70;;;3.80;99.90;;;;;;4993769;28;20215;-67
2023/01/24 05:10:01;;;;;;;9.93;6.50;;;3.80;99.90;;;;;;4995475;28;20537;-67
2023/01/24 05:12:27;;;;;;;9.60;6.43;;;3.80;99.90;;;;;;4995635;28;20181;-67
2023/01/24 05:14:52;;;;;;;9.07;7.23;;;3.80;99.90;;;;;;4995368;28;20215;-68
2023/01/24 05:17:18;;;;;;;8.87;5.53;;;3.80;99.90;;;;;;4995462;28;20176;-67
2023/01/24 05:19:43;;;;;;;10.40;8.10;;;3.70;99.90;;;;;;4995863;28;20169;-67
2023/01/24 05:22:09;;;;;;;11.37;7.53;;;3.80;99.90;;;;;;4995275;28;20262;-66
2023/01/24 05:24:34;;;;;;;9.40;6.27;;;3.80;99.90;;;;;;4994992;28;20207;-67
2023/01/24 05:27:00;;;;;;;9.40;6.57;;;3.80;99.90;;;;;;4995203;28;20271;-67
2023/01/24 05:29:25;;;;;;;8.60;5.93;;;3.80;99.90;;;;;;4995604;28;20523;-67
2023/01/24 05:31:51;;;;;;;10.90;7.97;;;3.70;99.90;;;;;;4995142;28;20233;-67
2023/01/24 05:34:17;;;;;;;9.10;5.67;;;3.70;99.90;;;;;;4992553;28;20557;-68
2023/01/24 05:36:42;;;;;;;6.37;5.50;;;3.70;99.90;;;;;;4995171;28;20172;-67
2023/01/24 05:39:08;;;;;;;8.30;5.97;;;3.70;99.90;;;;;;4995449;28;20258;-67
2023/01/24 05:41:33;;;;;;;8.90;7.07;;;3.70;99.90;;;;;;4995044;28;20168;-66
2023/01/24 05:44:00;;;;;;;7.73;5.40;;;3.80;99.90;;;;;;4993673;28;20593;-69
2023/01/24 05:46:25;;;;;;;11.07;7.10;;;3.80;99.90;;;;;;4994936;28;20530;-68
2023/01/24 05:48:52;;;;;;;9.70;6.07;;;3.80;99.90;;;;;;4995175;28;20172;-68
2023/01/24 05:51:19;;;;;;;7.55;5.93;;;3.80;99.90;;;;;;4995093;28;20169;-68
2023/01/24 05:53:44;;;;;;;9.20;6.15;;;3.80;99.90;;;;;;4994182;28;20175;-69
2023/01/24 05:56:16;;;;;;;6.77;5.60;;;3.80;99.90;;;;;;4994871;28;20172;-66
2023/01/24 05:58:42;;;;;;;6.43;5.55;;;3.80;99.90;;;;;;4995068;28;20630;-68
2023/01/24 06:01:10;;;;;;;8.48;5.78;;;3.80;99.90;;;;;;4994258;28;20188;-64
2023/01/24 06:03:42;;;;;;;7.90;6.93;;;3.80;99.90;;;;;;4978608;28;20208;-68
2023/01/24 06:06:12;;;;;;;12.52;7.30;;;3.80;99.90;;;;;;4975189;28;20194;-66
2023/01/24 06:08:38;;;;;;;8.32;5.45;;;3.80;99.90;;;;;;4979694;28;20189;-69
2023/01/24 06:11:05;;;;;;;11.27;6.00;;;3.80;99.90;;;;;;4991885;28;20199;-65
2023/01/24 06:13:31;;;;;;;9.32;6.13;;;3.80;99.90;;;;;;4992048;28;20765;-66
2023/01/24 06:16:05;;;;;;;9.77;7.27;;;3.80;99.90;;;;;;4984582;28;20173;-67
2023/01/24 06:18:32;;;;;;;11.70;7.15;;;3.70;99.90;;;;;;4992008;28;20407;-67
2023/01/24 06:20:57;;;;;;;10.25;7.55;;;3.70;99.90;;;;;;4994317;28;20167;-68
2023/01/24 06:23:26;;;;;;;8.93;6.63;;;3.80;99.90;;;;;;4989590;28;20311;-66
2023/01/24 06:25:52;;;;;;;11.25;6.18;;;3.80;99.90;;;;;;4983965;28;20778;-66
2023/01/24 06:28:18;;;;;;;10.60;6.32;;;3.80;99.90;;;;;;4976442;28;20200;-67
2023/01/24 06:30:50;;;;;;;9.52;6.90;;;3.80;99.90;;;;;;4975189;28;20175;-66
2023/01/24 06:33:31;;;;;;;10.20;6.28;;;3.80;99.90;;;;;;4974316;28;20180;-70
2023/01/24 06:36:30;;;;;;;8.02;7.25;;;3.80;99.90;;;;;;4986968;28;20185;-66
2023/01/24 06:38:55;;;;;;;9.23;7.00;;;3.80;99.90;;;;;;4994417;28;20175;-67
2023/01/24 06:41:21;;;;;;;8.20;5.20;;;3.80;99.90;;;;;;4981851;28;20202;-67
2023/01/24 06:43:47;;;;;;;9.07;6.83;;;3.80;99.90;;;;;;4990263;28;20438;-67
2023/01/24 06:46:13;;;;;;;12.13;6.70;;;3.80;99.90;;;;;;4992859;28;20411;-68
2023/01/24 06:48:42;;;;;;;12.23;7.50;;;3.80;99.90;;;;;;4990007;28;20423;-65
2023/01/24 06:51:12;;;;;;;10.52;5.07;;;3.80;99.90;;;;;;4974560;28;20643;-64
2023/01/24 06:53:37;;;;;;;8.13;5.30;;;3.80;99.90;;;;;;4979355;28;20539;-64
2023/01/24 06:56:03;;;;;;;8.77;7.63;;;3.80;99.90;;;;;;4973740;28;20172;-63
2023/01/24 06:58:28;;;;;;;7.20;5.80;;;3.80;99.90;;;;;;4974526;28;20172;-64
2023/01/24 07:00:54;;;;;;;14.43;7.47;;;3.80;99.90;;;;;;4983117;28;20175;-65
2023/01/24 07:03:19;;;;;;;9.17;6.07;;;3.80;99.90;;;;;;4993406;28;20203;-64
2023/01/24 07:05:47;;;;;;;7.03;5.67;;;3.80;99.90;;;;;;4984953;28;20290;-65
2023/01/24 07:08:13;;;;;;;8.75;6.20;;;3.80;99.90;;;;;;4974621;28;20528;-64
2023/01/24 07:10:39;;;;;;;8.30;5.83;;;3.70;99.90;;;;;;4980274;28;20183;-64
2023/01/24 07:13:05;;;;;;;8.57;6.28;;;3.70;99.90;;;;;;4983130;28;20940;-64
2023/01/24 07:15:30;;;;;;;9.13;7.00;;;3.70;99.90;;;;;;4977613;28;20240;-64
2023/01/24 07:17:57;;;;;;;10.20;8.00;;;3.70;99.90;;;;;;4983753;28;20214;-65
2023/01/24 07:20:22;;;;;;;8.55;6.90;;;3.70;99.90;;;;;;4984395;28;20243;-66
2023/01/24 07:22:48;;;;;;;8.73;5.33;;;3.70;99.90;;;;;;4972824;28;20176;-65
2023/01/24 07:25:17;;;;;;;9.87;6.80;;;3.70;99.90;;;;;;4974423;28;20473;-65
2023/01/24 07:27:43;;;;;;;11.18;7.25;;;3.70;99.90;;;;;;4974443;28;20417;-64
2023/01/24 07:30:10;;;;;;;10.73;6.00;;;3.70;99.90;;;;;;4972898;28;20199;-65
2023/01/24 07:32:36;;;;;;;8.23;6.30;;;3.70;99.90;;;;;;4979456;28;20424;-64
2023/01/24 07:35:03;;;;;;;10.80;6.60;;;3.60;99.90;;;;;;4978992;28;20212;-65
2023/01/24 07:37:29;;;;;;;9.18;6.47;;;3.60;99.90;;;;;;4991811;28;20415;-66
2023/01/24 07:39:55;;;;;;;6.97;6.18;;;3.60;99.90;;;;;;4983082;28;20230;-65
2023/01/24 07:42:20;;;;;;;8.97;6.67;;;3.70;99.90;;;;;;4982908;28;20203;-64
2023/01/24 07:44:46;;;;;;;10.13;7.10;;;3.70;99.90;;;;;;4983947;28;20187;-64
2023/01/24 07:47:11;;;;;;;13.40;6.83;;;3.70;99.90;;;;;;4981854;28;20168;-64
2023/01/24 07:49:37;;;;;;;7.47;5.73;;;3.70;99.90;;;;;;4974340;28;20176;-64
2023/01/24 07:52:03;;;;;;;17.53;5.70;;;3.70;99.90;;;;;;4976272;28;20181;-64
2023/01/24 07:54:28;;;;;;;11.63;6.80;;;3.70;99.90;;;;;;4991849;28;20257;-65
2023/01/24 07:56:54;;;;;;;11.53;7.53;;;3.70;99.90;;;;;;4987077;28;20213;-65
2023/01/24 07:59:19;;;;;;;7.60;6.27;;;3.70;99.90;;;;;;4976649;28;20299;-65
2023/01/24 08:01:45;;;;;;;10.70;7.90;;;3.70;99.90;;;;;;4972689;28;20172;-65
2023/01/24 08:04:11;;;;;;;6.80;4.80;;;3.70;99.90;;;;;;4988628;28;20740;-65
2023/01/24 08:06:38;;;;;;;11.50;6.00;;;3.80;99.90;;;;;;4994516;28;20197;-65
2023/01/24 08:09:03;;;;;;;7.60;5.90;;;3.80;99.90;;;;;;4991304;28;20184;-65
2023/01/24 08:11:29;;;;;;;10.33;7.30;;;3.80;99.90;;;;;;4977548;28;20243;-65
2023/01/24 08:13:55;;;;;;;8.90;6.30;;;3.80;99.90;;;;;;4991988;28;20200;-64
2023/01/24 08:16:23;;;;;;;10.10;7.03;;;3.80;99.90;;;;;;4997114;28;20202;-64
2023/01/24 08:18:49;;;;;;;11.10;7.15;;;3.80;99.90;;;;;;4997039;28;20164;-64
2023/01/24 08:21:14;;;;;;;9.63;6.03;;;3.90;99.90;;;;;;4996880;28;20179;-64
2023/01/24 08:23:40;;;;;;;9.80;6.57;;;3.90;99.90;;;;;;4996151;28;20246;-64
2023/01/24 08:26:06;;;;;;;10.90;8.67;;;3.90;99.90;;;;;;4996435;28;20222;-63
2023/01/24 08:28:33;;;;;;;12.00;7.13;;;3.90;99.90;;;;;;4996477;28;20597;-64
2023/01/24 08:30:59;;;;;;;8.15;5.72;;;3.90;99.90;;;;;;4987545;28;20447;-64
2023/01/24 08:33:25;;;;;;;11.57;7.83;;;3.90;99.90;;;;;;4988866;28;20207;-64
2023/01/24 08:35:50;;;;;;;11.03;6.70;;;3.90;99.90;;;;;;4992886;28;20470;-64
2023/01/24 08:38:16;;;;;;;9.70;6.80;;;4.00;99.90;;;;;;4995232;28;20424;-65
2023/01/24 08:40:43;;;;;;;12.17;6.17;;;4.00;99.90;;;;;;4989037;28;20180;-64
2023/01/24 08:43:08;;;;;;;9.25;6.47;;;4.10;99.90;;;;;;4976441;28;20172;-65
2023/01/24 08:45:34;;;;;;;8.40;5.70;;;4.10;99.90;;;;;;4976812;28;20582;-63
2023/01/24 08:48:00;;;;;;;7.83;5.40;;;4.10;99.90;;;;;;4976899;28;20272;-64
2023/01/24 08:50:26;;;;;;;11.97;7.93;;;4.10;99.90;;;;;;4976616;28;20414;-64
2023/01/24 08:52:58;;;;;;;10.07;6.40;;;4.20;99.90;;;;;;4979757;28;20184;-64
2023/01/24 08:55:24;;;;;;;10.02;6.68;;;4.20;99.90;;;;;;4991103;28;20228;-64
2023/01/24 08:57:50;;;;;;;12.40;6.78;;;4.30;99.90;;;;;;4983118;28;20208;-62
2023/01/24 09:00:16;;;;;;;7.80;5.30;;;4.30;99.90;;;;;;4986308;28;20183;-65
2023/01/24 09:02:42;;;;;;;8.82;6.07;;;4.40;99.90;;;;;;4976476;28;20409;-65
2023/01/24 09:05:08;;;;;;;12.00;8.40;;;4.40;99.90;;;;;;4976301;28;20193;-65
2023/01/24 09:07:40;;;;;;;8.32;5.72;;;4.40;99.90;;;;;;4976565;28;20193;-65
2023/01/24 09:10:06;;;;;;;12.27;6.50;;;4.50;99.90;;;;;;4979060;28;20186;-66
2023/01/24 09:12:31;;;;;;;9.25;5.32;;;4.50;99.90;;;;;;4976411;28;20170;-65
2023/01/24 09:14:57;;;;;;;8.50;6.20;;;4.50;99.90;;;;;;4990667;28;20331;-65
2023/01/24 09:17:23;;;;;;;7.88;5.80;;;4.50;99.90;;;;;;4983938;28;20172;-64
2023/01/24 09:19:49;;;;;;;9.83;6.03;;;4.60;99.90;;;;;;4989010;28;20184;-64
2023/01/24 09:22:15;;;;;;;9.70;5.17;;;4.60;99.90;;;;;;4977556;28;20207;-65
2023/01/24 09:24:40;;;;;;;8.77;5.90;;;4.60;99.90;;;;;;4984492;28;20246;-65
2023/01/24 09:27:06;;;;;;;6.23;4.90;;;4.60;99.90;;;;;;4992154;28;20187;-66
2023/01/24 09:29:32;;;;;;;8.60;5.00;;;4.60;99.90;;;;;;4987731;28;20420;-65
2023/01/24 09:31:57;;;;;;;7.03;5.57;;;4.60;99.90;;;;;;4984826;28;20265;-66
2023/01/24 09:34:23;;;;;;;7.57;5.23;;;4.60;99.90;;;;;;4975433;28;20567;-66
2023/01/24 09:36:49;;;;;;;5.10;4.57;;;4.60;99.90;;;;;;4976023;28;20204;-65
2023/01/24 09:39:15;;;;;;;5.50;4.47;;;4.50;99.90;;;;;;4975843;28;20183;-66
2023/01/24 09:41:43;;;;;;;6.70;3.83;;;4.60;99.90;;;;;;4975857;28;20273;-66
2023/01/24 09:44:35;;;;;;;5.28;4.20;;;4.60;99.90;;;;;;4975321;28;20204;-65
2023/01/24 09:47:05;;;;;;;6.57;5.72;;;4.50;99.90;;;;;;4974530;28;20184;-66
2023/01/24 09:49:37;;;;;;;8.05;5.10;;;4.50;99.90;;;;;;4975723;28;20170;-65
2023/01/24 09:52:12;;;;;;;6.45;5.07;;;4.60;99.90;;;;;;4974546;28;20183;-66
2023/01/24 09:54:46;;;;;;;5.25;4.38;;;4.60;99.90;;;;;;4974124;28;20216;-64
2023/01/24 09:57:49;;;;;;;7.90;5.03;;;4.70;99.90;;;;;;4978832;28;20167;-63
2023/01/24 10:00:27;;;;;;;7.28;5.18;;;4.70;99.90;;;;;;4976743;28;20184;-65
2023/01/24 10:02:57;;;;;;;5.80;5.20;;;4.70;99.90;;;;;;4989641;28;20182;-64
2023/01/24 10:05:32;;;;;;;9.07;5.38;;;4.70;99.90;;;;;;4978726;28;20230;-64
2023/01/24 10:08:23;;;;;;;7.43;5.70;;;4.70;99.90;;;;;;4983408;28;20175;-63
2023/01/24 10:10:58;;;;;;;8.60;5.75;;;4.70;99.90;;;;;;4986230;28;20176;-65
2023/01/24 10:13:50;;;;;;;6.35;4.85;;;4.80;99.90;;;;;;4974994;28;20578;-66
2023/01/24 10:16:45;;;;;;;6.88;4.65;;;4.80;99.90;;;;;;4982870;28;20664;-66
2023/01/24 10:19:36;;;;;;;10.82;6.30;;;4.80;99.90;;;;;;4987639;28;20173;-65
2023/01/24 10:22:50;;;;;;;5.72;4.10;;;4.80;99.90;;;;;;4994539;28;20176;-65
2023/01/24 10:25:28;;;;;;;5.70;4.25;;;4.80;99.90;;;;;;4976529;28;20213;-64
2023/01/24 10:27:58;;;;;;;8.27;4.82;;;4.80;99.90;;;;;;4975041;28;20177;-67
2023/01/24 10:30:39;;;;;;;6.93;5.85;;;4.70;99.90;;;;;;4975118;28;20180;-67
2023/01/24 10:33:19;;;;;;;5.63;4.15;;;4.80;99.90;;;;;;4988021;28;20230;-66
2023/01/24 10:36:11;;;;;;;5.05;4.60;;;4.80;99.90;;;;;;4987044;28;20244;-66
2023/01/24 10:38:36;;;;;;;4.93;4.20;;;4.90;99.90;;;;;;4977623;28;20265;-66
2023/01/24 10:41:11;;;;;;;5.77;4.13;;;4.90;99.90;;;;;;4993730;28;20229;-67
2023/01/24 10:43:38;;;;;;;8.70;5.13;;;4.90;99.90;;;;;;4984505;28;20586;-67
2023/01/24 10:46:03;;;;;;;7.85;5.07;;;4.90;99.90;;;;;;4983805;28;20168;-66
2023/01/24 10:48:44;;;;;;;6.00;3.83;;;5.00;99.90;;;;;;4983483;28;20512;-67
2023/01/24 10:51:23;;;;;;;7.50;5.38;;;5.10;99.90;;;;;;4983945;28;20523;-66
2023/01/24 10:53:49;;;;;;;7.93;4.65;;;5.10;99.90;;;;;;4983145;28;20199;-66
2023/01/24 10:56:20;;;;;;;7.03;4.80;;;5.20;99.90;;;;;;4983333;28;20175;-66
2023/01/24 10:59:05;;;;;;;7.63;5.15;;;5.20;99.90;;;;;;4983173;28;20167;-66
2023/01/24 11:01:37;;;;;;;5.68;5.13;;;5.30;99.90;;;;;;4992425;28;20630;-68
2023/01/24 11:04:21;;;;;;;6.35;4.30;;;5.20;99.90;;;;;;4993530;28;20268;-69
2023/01/24 11:06:49;;;;;;;6.97;4.22;;;5.30;99.90;;;;;;4994040;28;20193;-68
2023/01/24 11:09:19;;;;;;;4.88;4.40;;;5.30;99.90;;;;;;4994048;28;20565;-67
2023/01/24 11:11:50;;;;;;;6.72;4.28;;;5.30;99.90;;;;;;4986795;28;20565;-67
2023/01/24 11:14:20;;;;;;;9.13;4.45;;;5.40;99.90;;;;;;4993364;28;20282;-66
2023/01/24 11:16:53;;;;;;;6.95;3.92;;;5.50;99.90;;;;;;4993832;28;20168;-68
2023/01/24 11:19:30;;;;;;;6.95;5.60;;;5.50;99.90;;;;;;4985945;28;20172;-65
2023/01/24 11:22:01;;;;;;;9.13;4.07;;;5.60;99.90;;;;;;4993898;28;20163;-64
2023/01/24 11:24:28;;;;;;;6.40;4.15;;;5.60;99.90;;;;;;4993362;28;20278;-65
2023/01/24 11:27:13;;;;;;;7.45;3.83;;;5.60;99.90;;;;;;4992662;28;20179;-67
2023/01/24 11:29:40;;;;;;;6.15;4.97;;;5.70;99.90;;;;;;4977824;28;20542;-68
2023/01/24 11:32:30;;;;;;;5.13;3.88;;;5.60;99.90;;;;;;4972977;28;20564;-67
2023/01/24 11:35:10;;;;;;;5.88;4.15;;;5.70;99.90;;;;;;4973637;28;20196;-68
2023/01/24 11:38:10;;;;;;;6.38;4.35;;;5.50;99.90;;;;;;4974316;28;20246;-67
2023/01/24 11:40:43;;;;;;;3.05;2.80;;;5.40;99.90;;;;;;4973408;28;20246;-68
2023/01/24 11:43:31;;;;;;;6.10;4.95;;;5.50;99.90;;;;;;4975741;28;20565;-69
2023/01/24 11:46:13;;;;;;;7.60;4.97;;;5.50;99.90;;;;;;4975858;28;20201;-67
2023/01/24 11:48:54;;;;;;;5.70;3.83;;;5.50;99.90;;;;;;4976058;28;20207;-67
2023/01/24 11:51:22;;;;;;;6.75;5.18;;;5.50;99.90;;;;;;4982251;28;20172;-66
2023/01/24 11:53:57;;;;;;;6.30;4.95;;;5.50;99.90;;;;;;4977635;28;20204;-67
2023/01/24 11:56:49;;;;;;;6.63;5.07;;;5.60;99.90;;;;;;4978015;28;20222;-67
2023/01/24 11:59:40;;;;;;;6.85;5.18;;;5.60;99.90;;;;;;4985387;28;20761;-68
2023/01/24 12:02:33;;;;;;;4.28;3.75;;;5.70;99.90;;;;;;4997361;28;20185;-68
2023/01/24 12:05:19;;;;;;;5.95;5.25;;;5.70;99.90;;;;;;4994306;28;20219;-68
2023/01/24 12:08:18;;;;;;;13.10;6.15;;;5.70;99.90;;;;;;4997065;28;20269;-69
2023/01/24 12:10:55;;;;;;;4.90;3.45;;;5.50;99.90;;;;;;4981600;28;20180;-68
2023/01/24 12:13:31;;;;;;;7.78;4.57;;;5.50;99.90;;;;;;4984635;28;20599;-66
2023/01/24 12:16:19;;;;;;;6.85;5.47;;;5.50;99.90;;;;;;4986771;28;20327;-67
2023/01/24 12:19:10;;;;;;;7.40;4.88;;;5.40;99.90;;;;;;4994319;28;20317;-66
2023/01/24 12:21:36;;;;;;;10.25;5.90;;;5.40;99.90;;;;;;4963568;28;20653;-66
2023/01/24 12:24:20;;;;;;;6.40;4.37;;;5.40;99.90;;;;;;4993756;28;20200;-65
2023/01/24 12:26:50;;;;;;;5.63;4.90;;;5.40;99.90;;;;;;4985364;28;20769;-66
2023/01/24 12:29:20;;;;;;;5.97;4.20;;;5.40;99.90;;;;;;4986613;28;20167;-65
2023/01/24 12:31:49;;;;;;;5.90;5.35;;;5.40;99.90;;;;;;4982096;28;20164;-67
2023/01/24 12:34:34;;;;;;;5.53;4.07;;;5.30;99.90;;;;;;4992119;28;20208;-66
2023/01/24 12:37:08;;;;;;;6.88;5.95;;;5.20;99.90;;;;;;4996544;28;20530;-65
2023/01/24 12:39:56;;;;;;;11.65;5.82;;;5.20;99.90;;;;;;4996994;28;20169;-65
2023/01/24 12:42:46;;;;;;;6.35;4.50;;;5.20;99.90;;;;;;4974179;28;20273;-65
2023/01/24 12:45:20;;;;;;;7.82;5.60;;;5.20;99.90;;;;;;4971670;28;20212;-65
2023/01/24 12:47:52;;;;;;;7.60;4.90;;;5.20;99.90;;;;;;4977262;28;20675;-65
2023/01/24 12:50:27;;;;;;;5.38;4.85;;;5.20;99.90;;;;;;4987150;28;20211;-64
2023/01/24 12:53:15;;;;;;;5.03;4.18;;;5.20;99.90;;;;;;4975746;28;20206;-66
2023/01/24 12:55:51;;;;;;;4.93;3.53;;;5.10;99.90;;;;;;4976692;28;20215;-66
2023/01/24 12:58:26;;;;;;;7.55;4.82;;;5.20;99.90;;;;;;4988988;28;20175;-66
2023/01/24 13:01:27;;;;;;;6.30;5.28;;;5.10;99.90;;;;;;4995822;28;20177;-68
2023/01/24 13:04:17;;;;;;;10.40;4.40;;;5.10;99.90;;;;;;4994007;28;20565;-67
2023/01/24 13:06:59;;;;;;;6.45;4.97;;;5.10;99.90;;;;;;4995943;28;20180;-67
2023/01/24 13:09:40;;;;;;;4.07;3.40;;;5.10;99.90;;;;;;4996024;28;20275;-67
2023/01/24 13:12:14;;;;;;;4.68;4.25;;;5.10;99.90;;;;;;4995469;28;20164;-67
2023/01/24 13:14:45;;;;;;;6.88;5.30;;;5.10;99.90;;;;;;4990532;28;20227;-67
2023/01/24 13:17:31;;;;;;;5.85;4.47;;;5.00;99.90;;;;;;4986577;28;20179;-67
2023/01/24 13:20:02;;;;;;;5.70;5.15;;;5.00;99.90;;;;;;4976402;28;20203;-70
2023/01/24 13:22:45;;;;;;;10.40;5.20;;;4.90;99.90;;;;;;4976244;28;20178;-68
2023/01/24 13:25:32;;;;;;;6.57;5.45;;;4.90;99.90;;;;;;4975994;28;20224;-65
2023/01/24 13:28:00;;;;;;;5.68;5.00;;;4.90;99.90;;;;;;4978295;28;20184;-64
2023/01/24 13:30:45;;;;;;;6.80;4.55;;;4.90;99.90;;;;;;4984384;28;20584;-64
2023/01/24 13:33:23;;;;;;;7.65;5.75;;;4.80;99.90;;;;;;4995452;28;20673;-65
2023/01/24 13:35:51;;;;;;;6.57;4.50;;;4.80;99.90;;;;;;4987738;28;20215;-65
2023/01/24 13:38:29;;;;;;;6.93;4.45;;;4.80;99.90;;;;;;4995554;28;20642;-65
2023/01/24 13:41:01;;;;;;;10.93;6.22;;;4.80;99.90;;;;;;4995971;28;20180;-64
2023/01/24 13:43:36;;;;;;;5.15;4.28;;;4.70;99.90;;;;;;4994810;28;20208;-66
2023/01/24 13:46:01;;;;;;;6.28;4.32;;;4.70;99.90;;;;;;4995095;28;20226;-65
2023/01/24 13:48:39;;;;;;;6.87;4.17;;;4.70;99.90;;;;;;4992934;28;20582;-64
2023/01/24 13:51:19;;;;;;;7.05;5.28;;;4.70;99.90;;;;;;4993073;28;20173;-65
2023/01/24 13:54:05;;;;;;;10.32;5.10;;;4.70;99.90;;;;;;4992766;28;20179;-65
2023/01/24 13:56:31;;;;;;;7.85;5.22;;;4.70;99.90;;;;;;4993081;28;20238;-63
2023/01/24 13:58:58;;;;;;;6.15;3.90;;;4.70;99.90;;;;;;4993073;28;20664;-65
2023/01/24 14:01:25;;;;;;;4.85;4.38;;;4.70;99.90;;;;;;4991700;28;20255;-67
2023/01/24 14:03:56;;;;;;;5.15;4.65;;;4.70;99.90;;;;;;4991504;28;20660;-66
2023/01/24 14:06:23;;;;;;;9.00;4.70;;;4.60;99.90;;;;;;4994496;28;20190;-64
2023/01/24 14:08:57;;;;;;;9.55;7.10;;;4.60;99.90;;;;;;4993991;28;20686;-64
2023/01/24 14:11:29;;;;;;;4.82;4.38;;;4.60;99.90;;;;;;4994058;28;20209;-65
2023/01/24 14:14:02;;;;;;;6.38;4.60;;;4.60;99.90;;;;;;4992902;28;20198;-65
2023/01/24 14:16:47;;;;;;;4.93;4.38;;;4.60;99.90;;;;;;4994114;28;20251;-65
2023/01/24 14:19:22;;;;;;;7.07;5.60;;;4.60;99.90;;;;;;4993107;28;20638;-64
2023/01/24 14:22:16;;;;;;;6.30;4.90;;;4.50;99.90;;;;;;4994053;28;20258;-65
2023/01/24 14:25:11;;;;;;;6.50;5.78;;;4.50;99.90;;;;;;4993580;28;20249;-65
2023/01/24 14:27:46;;;;;;;5.05;4.55;;;4.50;99.90;;;;;;4993969;28;20591;-65
2023/01/24 14:30:18;;;;;;;8.70;5.60;;;4.50;99.90;;;;;;4994066;28;20181;-63
2023/01/24 14:32:46;;;;;;;6.75;4.90;;;4.40;99.90;;;;;;4994051;28;20278;-64
2023/01/24 14:35:18;;;;;;;6.30;5.07;;;4.40;99.90;;;;;;4994298;28;20677;-65
2023/01/24 14:37:45;;;;;;;7.47;5.88;;;4.40;99.90;;;;;;4994441;28;20256;-65
2023/01/24 14:40:25;;;;;;;6.38;4.85;;;4.40;99.90;;;;;;4994228;28;20167;-64
2023/01/24 14:42:58;;;;;;;9.00;5.20;;;4.40;99.90;;;;;;4993885;28;20518;-65
2023/01/24 14:45:28;;;;;;;8.60;4.90;;;4.40;99.90;;;;;;4994277;28;20202;-64
2023/01/24 14:47:55;;;;;;;7.65;4.82;;;4.40;99.90;;;;;;4994183;28;20179;-63
2023/01/24 14:50:28;;;;;;;5.68;4.47;;;4.40;99.90;;;;;;4994053;28;20241;-65
2023/01/24 14:52:55;;;;;;;8.85;5.30;;;4.40;99.90;;;;;;4994009;28;20191;-63
2023/01/24 14:55:26;;;;;;;5.00;4.53;;;4.30;99.90;;;;;;4993957;28;20199;-65
2023/01/24 14:57:53;;;;;;;7.35;5.65;;;4.30;99.90;;;;;;4994307;28;20184;-65
2023/01/24 15:00:20;;;;;;;6.55;5.85;;;4.30;99.90;;;;;;4993553;28;20168;-65
2023/01/24 15:03:04;;;;;;;6.00;4.70;;;4.30;99.90;;;;;;4993118;28;20180;-63
2023/01/24 15:05:37;;;;;;;9.15;6.35;;;4.30;99.90;;;;;;4993658;28;20205;-65
2023/01/24 15:08:05;;;;;;;6.60;5.65;;;4.30;99.90;;;;;;4994055;28;20168;-64
2023/01/24 15:10:41;;;;;;;8.55;6.90;;;4.30;99.90;;;;;;4994254;28;20497;-66
2023/01/24 15:13:09;;;;;;;7.72;6.07;;;4.30;99.90;;;;;;4993477;28;20176;-64
2023/01/24 15:15:36;;;;;;;8.60;6.25;;;4.30;99.90;;;;;;4993608;28;20247;-65
2023/01/24 15:18:05;;;;;;;7.38;4.53;;;4.40;99.90;;;;;;4997765;28;20226;-64
2023/01/24 15:20:31;;;;;;;11.25;6.18;;;4.40;99.90;;;;;;4997945;28;20198;-65
2023/01/24 15:23:01;;;;;;;8.15;5.22;;;4.40;99.90;;;;;;4997489;28;20183;-64
2023/01/24 15:25:33;;;;;;;8.68;6.07;;;4.40;99.90;;;;;;4997817;28;20207;-64
2023/01/24 15:28:18;;;;;;;9.07;5.60;;;4.40;99.90;;;;;;4998014;28;20194;-64
2023/01/24 15:30:52;;;;;;;6.88;6.18;;;4.40;99.90;;;;;;4997794;28;20175;-64
2023/01/24 15:33:18;;;;;;;7.43;6.05;;;4.40;99.90;;;;;;4997471;28;20181;-64
2023/01/24 15:35:48;;;;;;;5.47;4.80;;;4.40;99.90;;;;;;4997513;28;20203;-65
2023/01/24 15:38:24;;;;;;;7.80;5.60;;;4.40;99.90;;;;;;4997564;28;20173;-65
2023/01/24 15:41:10;;;;;;;10.32;6.40;;;4.30;99.90;;;;;;4997610;28;20262;-64
2023/01/24 15:43:45;;;;;;;13.68;6.85;;;4.30;99.90;;;;;;4996762;28;20184;-66
2023/01/24 15:49:15;;;;;;;7.22;5.75;;;4.30;99.90;;;;;;4997176;28;20182;-66
2023/01/24 15:51:42;;;;;;;8.00;7.00;;;4.20;99.90;;;;;;4997131;28;20179;-67
2023/01/24 15:54:11;;;;;;;8.85;6.35;;;4.20;99.90;;;;;;4996570;28;20183;-65
2023/01/24 15:56:38;;;;;;;7.28;6.55;;;4.30;99.90;;;;;;4996852;28;20180;-64
2023/01/24 15:59:18;;;;;;;7.20;6.18;;;4.30;99.90;;;;;;4996764;28;20526;-66
2023/01/24 16:01:44;;;;;;;7.88;5.57;;;4.20;99.90;;;;;;4980301;28;20200;-64
2023/01/24 16:04:15;;;;;;;8.80;6.03;;;4.20;99.90;;;;;;4982317;28;20215;-67
2023/01/24 16:06:41;;;;;;;13.52;7.07;;;4.10;99.90;;;;;;4977467;28;20267;-68
2023/01/24 16:09:08;;;;;;;10.93;6.97;;;4.10;99.90;;;;;;4986767;28;20187;-67
2023/01/24 16:11:35;;;;;;;7.18;5.82;;;4.10;99.90;;;;;;4992028;28;20574;-69
2023/01/24 16:14:01;;;;;;;8.95;6.50;;;4.10;99.90;;;;;;4996507;28;20245;-68
2023/01/24 16:16:28;;;;;;;10.10;6.70;;;4.10;99.90;;;;;;4997110;28;20163;-70
2023/01/24 16:18:53;;;;;;;11.52;6.43;;;4.10;99.90;;;;;;4993751;28;20426;-73
2023/01/24 16:21:19;;;;;;;13.80;7.47;;;4.10;99.90;;;;;;4996852;28;20168;-67
2023/01/24 16:23:44;;;;;;;9.60;5.70;;;4.10;99.90;;;;;;4994588;28;20184;-65
2023/01/24 16:26:21;;;;;;;9.60;6.20;;;4.00;99.90;;;;;;4995475;28;20169;-68
2023/01/24 16:28:47;;;;;;;13.40;7.32;;;4.00;99.90;;;;;;4996849;28;20179;-66
2023/01/24 16:31:12;;;;;;;12.60;7.13;;;4.00;99.90;;;;;;4996563;28;20530;-66
2023/01/24 16:33:38;;;;;;;9.60;6.03;;;4.00;99.90;;;;;;4996447;28;20693;-65
2023/01/24 16:36:04;;;;;;;9.67;6.43;;;4.00;99.90;;;;;;4995939;28;20286;-71
2023/01/24 16:38:29;;;;;;;10.07;5.77;;;4.00;99.90;;;;;;4996266;28;20164;-70
2023/01/24 16:40:55;;;;;;;12.67;6.10;;;4.00;99.90;;;;;;4996708;28;20453;-69
2023/01/24 16:43:24;;;;;;;9.73;6.07;;;4.00;99.90;;;;;;4994844;28;20659;-66
2023/01/24 16:45:50;;;;;;;8.43;7.05;;;4.00;99.90;;;;;;4995885;28;20203;-70
2023/01/24 16:48:17;;;;;;;8.82;6.28;;;4.00;99.90;;;;;;4995817;28;20183;-69
2023/01/24 16:50:45;;;;;;;6.93;5.93;;;3.90;99.90;;;;;;4996262;28;20183;-66
2023/01/24 16:53:11;;;;;;;9.68;6.03;;;3.90;99.90;;;;;;4996082;28;20637;-69
2023/01/24 16:55:40;;;;;;;7.28;5.57;;;3.90;99.90;;;;;;4996300;28;20215;-69
2023/01/24 16:58:10;;;;;;;10.23;6.07;;;3.90;99.90;;;;;;4975605;28;20173;-67
2023/01/24 17:00:46;;;;;;;13.45;7.10;;;3.90;99.90;;;;;;4976467;28;20171;-65
2023/01/24 17:03:12;;;;;;;9.88;6.50;;;3.90;99.90;;;;;;4980258;28;20234;-66
2023/01/24 17:05:40;;;;;;;12.20;7.57;;;3.90;99.90;;;;;;4983528;28;20608;-67
2023/01/24 17:08:05;;;;;;;9.40;6.72;;;3.90;99.90;;;;;;4985060;28;20169;-65
2023/01/24 17:10:31;;;;;;;11.73;7.50;;;3.80;99.90;;;;;;4985763;28;20653;-64
2023/01/24 17:12:57;;;;;;;11.87;7.40;;;3.80;99.90;;;;;;4986246;28;20296;-66
2023/01/24 17:15:22;;;;;;;11.37;7.97;;;3.70;99.90;;;;;;4985836;28;20204;-64
2023/01/24 17:17:48;;;;;;;18.43;8.83;;;3.80;99.90;;;;;;4990921;28;20210;-68
2023/01/24 17:20:14;;;;;;;12.53;7.20;;;3.80;99.90;;;;;;4990894;28;20258;-66
2023/01/24 17:22:40;;;;;;;12.23;8.23;;;3.80;99.90;;;;;;4978176;28;20179;-68
2023/01/24 17:25:06;;;;;;;11.38;7.93;;;3.80;99.90;;;;;;4995239;28;20283;-67
2023/01/24 17:27:32;;;;;;;10.93;7.75;;;3.80;99.90;;;;;;4995357;28;20179;-69
2023/01/24 17:29:57;;;;;;;9.50;6.03;;;3.80;99.90;;;;;;4995706;28;20570;-66
2023/01/24 17:32:23;;;;;;;10.57;8.47;;;3.80;99.90;;;;;;4994053;28;20276;-69
2023/01/24 17:34:49;;;;;;;7.70;6.63;;;3.80;99.90;;;;;;4994325;28;20196;-67
2023/01/24 17:37:14;;;;;;;8.50;7.30;;;3.80;99.90;;;;;;4992224;28;20224;-74
2023/01/24 17:39:40;;;;;;;13.37;9.43;;;3.80;99.90;;;;;;4993645;28;20175;-68
2023/01/24 17:42:05;;;;;;;14.13;7.40;;;3.80;99.90;;;;;;4982963;28;20206;-66
2023/01/24 17:44:31;;;;;;;12.90;7.80;;;3.70;99.90;;;;;;4981386;28;20204;-69
2023/01/24 17:46:57;;;;;;;10.40;7.07;;;3.80;99.90;;;;;;4985534;28;20175;-68
2023/01/24 17:49:23;;;;;;;12.73;8.23;;;3.70;99.90;;;;;;4993506;28;20187;-67
2023/01/24 17:51:49;;;;;;;10.50;8.15;;;3.80;99.90;;;;;;4975486;28;20177;-72
2023/01/24 17:54:15;;;;;;;18.20;7.40;;;3.70;99.90;;;;;;4990255;28;20330;-68
2023/01/24 17:56:41;;;;;;;11.30;7.07;;;3.70;99.90;;;;;;4994662;28;20433;-68
2023/01/24 17:59:07;;;;;;;14.48;9.80;;;3.70;99.90;;;;;;4993157;28;20511;-69
2023/01/24 18:01:33;;;;;;;11.90;8.90;;;3.70;99.90;;;;;;4994935;28;20178;-73
2023/01/24 18:03:59;;;;;;;12.20;7.50;;;3.70;99.90;;;;;;4986893;28;20274;-70
2023/01/24 18:06:25;;;;;;;10.65;7.72;;;3.60;99.90;;;;;;4994295;28;20199;-69
2023/01/24 18:08:50;;;;;;;10.90;8.53;;;3.60;99.90;;;;;;4990767;28;20177;-69
2023/01/24 18:11:19;;;;;;;14.30;9.30;;;3.60;99.90;;;;;;4985140;28;20176;-72
2023/01/24 18:13:45;;;;;;;12.35;10.07;;;3.60;99.90;;;;;;4984642;28;20179;-68
2023/01/24 18:16:13;;;;;;;9.35;7.63;;;3.60;99.90;;;;;;4983712;28;20689;-67
2023/01/24 18:18:39;;;;;;;10.45;9.43;;;3.60;99.90;;;;;;4988775;28;20532;-68
2023/01/24 18:21:25;;;;;;;12.77;9.23;;;3.60;99.90;;;;;;4994541;28;20202;-67
2023/01/24 18:23:53;;;;;;;15.93;9.60;;;3.50;99.90;;;;;;4993929;28;20241;-72